createdAt,value
2019-04-25T00:01:27.704Z,99566.23
2019-04-25T00:03:56.372Z,99562.30
2019-04-25T00:06:26.008Z,99562.55
2019-04-25T00:08:54.713Z,99554.66
2019-04-25T00:11:23.883Z,99549.83
2019-04-25T00:13:52.564Z,99547.36
2019-04-25T00:16:22.868Z,99552.13
2019-04-25T00:18:51.805Z,99536.80
2019-04-25T00:21:27.340Z,99535.19
2019-04-25T00:24:02.508Z,99559.39
2019-04-25T00:26:38.809Z,99549.20
2019-04-25T00:29:07.485Z,99551.48
2019-04-25T00:31:36.133Z,99554.26
2019-04-25T00:34:05.474Z,99549.25
2019-04-25T00:36:34.121Z,99550.16
2019-04-25T00:39:03.043Z,99543.94
2019-04-25T00:41:32.019Z,99564.50
2019-04-25T00:44:02.468Z,99562.41
2019-04-25T00:46:32.185Z,99565.77
2019-04-25T00:49:02.440Z,99581.98
2019-04-25T00:51:31.793Z,99586.80
2019-04-25T00:54:02.415Z,99586.12
2019-04-25T00:56:32.194Z,99587.58
2019-04-25T00:59:09.877Z,99576.31
2019-04-25T01:02:01.542Z,99586.67
2019-04-25T01:04:33.545Z,99596.00
2019-04-25T01:07:02.056Z,99602.11
2019-04-25T01:09:32.314Z,99599.38
2019-04-25T01:12:03.857Z,99595.52
2019-04-25T01:14:33.620Z,99591.34
2019-04-25T01:17:02.078Z,99590.86
2019-04-25T01:19:30.765Z,99590.64
2019-04-25T01:21:59.411Z,99578.20
2019-04-25T01:24:28.745Z,99571.56
2019-04-25T01:26:57.501Z,99564.09
2019-04-25T01:29:26.208Z,99565.08
2019-04-25T01:31:55.288Z,99570.62
2019-04-25T01:34:34.511Z,99574.74
2019-04-25T01:37:10.301Z,99561.74
2019-04-25T01:39:47.685Z,99553.76
2019-04-25T01:42:30.123Z,99558.04
2019-04-25T01:44:58.964Z,99550.08
2019-04-25T01:47:27.774Z,99564.13
2019-04-25T01:49:56.676Z,99567.91
2019-04-25T01:52:25.381Z,99580.28
2019-04-25T01:54:55.079Z,99596.95
2019-04-25T01:57:24.660Z,99601.75
2019-04-25T01:59:54.099Z,99599.59
2019-04-25T02:02:25.450Z,99601.89
2019-04-25T02:04:56.818Z,99588.41
2019-04-25T02:07:24.672Z,99582.31
2019-04-25T02:09:54.807Z,99598.70
2019-04-25T02:12:34.653Z,99604.76
2019-04-25T02:15:05.961Z,99614.53
2019-04-25T02:17:34.084Z,99621.55
2019-04-25T02:20:04.185Z,99616.94
2019-04-25T02:22:34.184Z,99620.37
2019-04-25T02:25:04.540Z,99626.20
2019-04-25T02:27:34.229Z,99632.29
2019-04-25T02:30:06.492Z,99638.22
2019-04-25T02:32:34.382Z,99649.57
2019-04-25T02:35:09.088Z,99653.36
2019-04-25T02:37:35.244Z,99657.72
2019-04-25T02:40:07.691Z,99669.61
2019-04-25T02:42:34.666Z,99671.72
2019-04-25T02:45:16.260Z,99657.30
2019-04-25T02:48:02.249Z,99652.79
2019-04-25T02:50:47.567Z,99657.64
2019-04-25T02:53:50.770Z,99649.27
2019-04-25T02:56:33.236Z,99664.45
2019-04-25T02:58:50.357Z,99662.27
2019-04-25T03:01:23.558Z,99663.89
2019-04-25T03:03:49.934Z,99663.79
2019-04-25T03:06:18.800Z,99658.81
2019-04-25T03:08:47.523Z,99652.14
2019-04-25T03:11:16.298Z,99653.64
2019-04-25T03:13:44.918Z,99654.06
2019-04-25T03:16:14.179Z,99658.16
2019-04-25T03:18:58.866Z,99662.48
2019-04-25T03:21:30.790Z,99661.73
2019-04-25T03:24:01.243Z,99668.34
2019-04-25T03:26:39.745Z,99663.48
2019-04-25T03:29:01.236Z,99666.41
2019-04-25T03:31:30.100Z,99650.64
2019-04-25T03:33:58.756Z,99652.05
2019-04-25T03:36:27.403Z,99659.45
2019-04-25T03:38:56.072Z,99649.28
2019-04-25T03:41:24.741Z,99644.22
2019-04-25T03:43:54.205Z,99646.33
2019-04-25T03:46:23.359Z,99643.83
2019-04-25T03:48:53.829Z,99647.12
2019-04-25T03:51:24.024Z,99652.36
2019-04-25T03:53:53.572Z,99669.52
2019-04-25T03:56:22.512Z,99675.30
2019-04-25T03:58:51.185Z,99668.39
2019-04-25T04:01:19.841Z,99677.14
2019-04-25T04:03:48.515Z,99687.40
2019-04-25T04:06:17.159Z,99693.64
2019-04-25T04:08:46.080Z,99689.20
2019-04-25T04:11:15.654Z,99699.00
2019-04-25T04:13:44.487Z,99700.75
2019-04-25T04:16:15.425Z,99699.86
2019-04-25T04:18:45.915Z,99698.02
2019-04-25T04:21:53.231Z,99704.06
2019-04-25T04:24:28.613Z,99715.39
2019-04-25T04:27:09.049Z,99723.50
2019-04-25T04:29:37.614Z,99725.73
2019-04-25T04:32:06.946Z,99729.14
2019-04-25T04:34:35.780Z,99734.55
2019-04-25T04:37:04.585Z,99737.52
2019-04-25T04:39:33.824Z,99736.42
2019-04-25T04:42:03.827Z,99737.73
2019-04-25T04:44:34.221Z,99736.02
2019-04-25T04:47:03.968Z,99736.13
2019-04-25T04:49:34.161Z,99747.45
2019-04-25T04:52:04.544Z,99742.72
2019-04-25T04:54:34.517Z,99750.64
2019-04-25T04:57:16.805Z,99753.06
2019-04-25T04:59:33.845Z,99743.13
2019-04-25T05:02:24.529Z,99747.13
2019-04-25T05:05:05.787Z,99740.95
2019-04-25T05:07:44.036Z,99747.20
2019-04-25T05:10:14.702Z,99755.08
2019-04-25T05:12:43.758Z,99758.48
2019-04-25T05:15:16.188Z,99754.00
2019-04-25T05:17:44.015Z,99761.55
2019-04-25T05:20:15.121Z,99748.85
2019-04-25T05:22:44.511Z,99750.37
2019-04-25T05:25:16.223Z,99758.95
2019-04-25T05:27:57.647Z,99757.42
2019-04-25T05:30:19.155Z,99755.28
2019-04-25T05:32:48.071Z,99760.61
2019-04-25T05:35:17.747Z,99763.56
2019-04-25T05:37:46.473Z,99765.06
2019-04-25T05:40:16.278Z,99768.12
2019-04-25T05:42:50.495Z,99764.44
2019-04-25T05:45:21.272Z,99762.32
2019-04-25T05:47:49.967Z,99766.61
2019-04-25T05:50:18.636Z,99768.72
2019-04-25T05:52:47.294Z,99764.17
2019-04-25T05:55:17.336Z,99767.97
2019-04-25T05:57:49.986Z,99767.31
2019-04-25T06:00:18.080Z,99772.00
2019-04-25T06:02:47.647Z,99766.75
2019-04-25T06:05:17.400Z,99774.44
2019-04-25T06:07:46.204Z,99767.39
2019-04-25T06:10:45.053Z,99766.44
2019-04-25T06:13:38.415Z,99765.71
2019-04-25T06:16:15.949Z,99780.66
2019-04-25T06:18:50.989Z,99776.70
2019-04-25T06:21:20.034Z,99777.13
2019-04-25T06:24:17.122Z,99776.03
2019-04-25T06:27:11.880Z,99784.13
2019-04-25T06:29:40.618Z,99784.27
2019-04-25T06:32:09.299Z,99783.33
2019-04-25T06:34:37.963Z,99792.78
2019-04-25T06:37:06.745Z,99795.48
2019-04-25T06:39:35.399Z,99793.58
2019-04-25T06:42:04.314Z,99780.84
2019-04-25T06:44:38.079Z,99783.40
2019-04-25T06:47:16.066Z,99788.13
2019-04-25T06:49:44.726Z,99786.53
2019-04-25T06:52:13.929Z,99785.23
2019-04-25T06:54:43.693Z,99780.53
2019-04-25T06:57:14.040Z,99785.43
2019-04-25T06:59:43.744Z,99785.84
2019-04-25T07:02:14.013Z,99787.75
2019-04-25T07:04:43.497Z,99786.52
2019-04-25T07:07:14.915Z,99789.70
2019-04-25T07:09:43.950Z,99791.09
2019-04-25T07:12:13.480Z,99793.26
2019-04-25T07:14:44.010Z,99791.69
2019-04-25T07:17:14.266Z,99789.03
2019-04-25T07:19:44.067Z,99783.42
2019-04-25T07:22:13.926Z,99790.95
2019-04-25T07:24:43.993Z,99786.10
2019-04-25T07:27:30.782Z,99786.07
2019-04-25T07:30:31.203Z,99783.62
2019-04-25T07:33:06.342Z,99786.53
2019-04-25T07:35:35.752Z,99775.47
2019-04-25T07:38:04.605Z,99781.13
2019-04-25T07:40:34.038Z,99783.77
2019-04-25T07:43:04.819Z,99785.48
2019-04-25T07:45:36.160Z,99790.66
2019-04-25T07:48:05.321Z,99780.75
2019-04-25T07:50:35.153Z,99789.48
2019-04-25T07:53:05.758Z,99788.08
2019-04-25T07:55:36.344Z,99783.14
2019-04-25T07:58:05.242Z,99785.36
2019-04-25T08:00:35.253Z,99784.52
2019-04-25T08:03:04.928Z,99792.41
2019-04-25T08:05:37.909Z,99794.43
2019-04-25T08:08:06.693Z,99801.86
2019-04-25T08:10:57.713Z,99810.16
2019-04-25T08:13:28.834Z,99791.16
2019-04-25T08:15:58.790Z,99798.00
2019-04-25T08:18:28.596Z,99791.65
2019-04-25T08:20:58.110Z,99797.58
2019-04-25T08:23:29.046Z,99797.47
2019-04-25T08:25:58.151Z,99790.87
2019-04-25T08:28:26.840Z,99792.48
2019-04-25T08:30:55.503Z,99790.42
2019-04-25T08:33:24.220Z,99791.97
2019-04-25T08:36:04.527Z,99792.47
2019-04-25T08:38:23.876Z,99799.50
2019-04-25T08:40:54.189Z,99786.23
2019-04-25T08:43:24.329Z,99788.02
2019-04-25T08:45:54.408Z,99785.48
2019-04-25T08:48:26.624Z,99786.05
2019-04-25T08:51:15.642Z,99791.27
2019-04-25T08:53:54.374Z,99793.65
2019-04-25T08:56:27.374Z,99795.25
2019-04-25T08:59:07.914Z,99796.33
2019-04-25T09:01:57.644Z,99798.52
2019-04-25T09:04:38.042Z,99806.57
2019-04-25T09:07:06.747Z,99806.76
2019-04-25T09:09:36.935Z,99811.48
2019-04-25T09:12:05.886Z,99813.78
2019-04-25T09:14:36.288Z,99818.84
2019-04-25T09:17:04.995Z,99810.25
2019-04-25T09:19:36.216Z,99813.28
2019-04-25T09:22:04.151Z,99813.77
2019-04-25T09:24:33.500Z,99819.47
2019-04-25T09:27:03.678Z,99819.88
2019-04-25T09:29:34.227Z,99820.02
2019-04-25T09:32:03.754Z,99818.22
2019-04-25T09:34:33.606Z,99818.78
2019-04-25T09:37:03.192Z,99819.72
2019-04-25T09:39:51.628Z,99822.28
2019-04-25T09:42:20.376Z,99817.58
2019-04-25T09:45:06.831Z,99825.83
2019-04-25T09:47:37.155Z,99815.72
2019-04-25T09:50:09.481Z,99818.39
2019-04-25T09:52:38.134Z,99813.95
2019-04-25T09:55:18.993Z,99806.80
2019-04-25T09:57:53.970Z,99815.71
2019-04-25T10:00:48.452Z,99808.20
2019-04-25T10:03:17.251Z,99815.27
2019-04-25T10:05:46.864Z,99821.85
2019-04-25T10:08:15.651Z,99819.94
2019-04-25T10:10:44.674Z,99826.10
2019-04-25T10:13:13.358Z,99826.10
2019-04-25T10:16:05.200Z,99828.08
2019-04-25T10:18:34.981Z,99823.32
2019-04-25T10:21:05.556Z,99819.94
2019-04-25T10:23:34.644Z,99815.69
2019-04-25T10:26:03.915Z,99808.73
2019-04-25T10:28:33.626Z,99806.91
2019-04-25T10:31:03.544Z,99798.57
2019-04-25T10:33:32.466Z,99807.70
2019-04-25T10:36:01.410Z,99794.15
2019-04-25T10:38:30.244Z,99790.08
2019-04-25T10:40:59.290Z,99782.98
2019-04-25T10:43:28.038Z,99792.13
2019-04-25T10:45:56.756Z,99798.63
2019-04-25T10:48:25.448Z,99803.95
2019-04-25T10:50:55.728Z,99792.01
2019-04-25T10:53:25.179Z,99793.94
2019-04-25T10:55:54.102Z,99773.30
2019-04-25T10:58:22.758Z,99783.52
2019-04-25T11:00:53.239Z,99783.37
2019-04-25T11:03:33.943Z,99777.30
2019-04-25T11:06:03.929Z,99778.08
2019-04-25T11:08:34.020Z,99782.88
2019-04-25T11:11:03.782Z,99786.80
2019-04-25T11:13:33.793Z,99783.42
2019-04-25T11:16:03.867Z,99768.12
2019-04-25T11:18:34.022Z,99772.61
2019-04-25T11:21:05.742Z,99767.78
2019-04-25T11:23:33.475Z,99760.67
2019-04-25T11:26:03.752Z,99771.16
2019-04-25T11:28:33.783Z,99766.97
2019-04-25T11:31:05.268Z,99756.69
2019-04-25T11:33:35.061Z,99759.98
2019-04-25T11:36:04.184Z,99748.91
2019-04-25T11:38:45.329Z,99755.55
2019-04-25T11:41:15.599Z,99745.14
2019-04-25T11:43:46.251Z,99743.56
2019-04-25T11:46:16.649Z,99741.78
2019-04-25T11:48:46.374Z,99735.97
2019-04-25T11:51:15.178Z,99736.38
2019-04-25T11:53:45.095Z,99742.98
2019-04-25T11:56:14.408Z,99750.77
2019-04-25T11:58:45.573Z,99748.90
2019-04-25T12:01:15.178Z,99743.36
2019-04-25T12:03:46.606Z,99740.72
2019-04-25T12:06:14.278Z,99736.30
2019-04-25T12:08:43.848Z,99727.53
2019-04-25T12:11:13.964Z,99716.77
2019-04-25T12:13:45.684Z,99715.57
2019-04-25T12:16:14.449Z,99719.02
2019-04-25T12:18:44.756Z,99715.11
2019-04-25T12:21:13.717Z,99711.02
2019-04-25T12:23:45.031Z,99716.80
2019-04-25T12:26:14.291Z,99713.30
2019-04-25T12:28:43.080Z,99706.46
2019-04-25T12:31:13.274Z,99698.05
2019-04-25T12:33:43.422Z,99687.55
2019-04-25T12:36:13.619Z,99681.55
2019-04-25T12:38:44.947Z,99671.05
2019-04-25T12:41:13.304Z,99670.14
2019-04-25T12:43:47.054Z,99674.45
2019-04-25T12:46:31.325Z,99673.46
2019-04-25T12:49:00.088Z,99679.97
2019-04-25T12:51:28.743Z,99666.52
2019-04-25T12:53:58.025Z,99673.92
2019-04-25T12:56:26.672Z,99676.84
2019-04-25T12:58:56.017Z,99686.27
2019-04-25T13:01:24.855Z,99680.94
2019-04-25T13:03:54.394Z,99665.36
2019-04-25T13:06:23.994Z,99666.20
2019-04-25T13:08:54.240Z,99670.22
2019-04-25T13:11:23.950Z,99661.19
2019-04-25T13:13:52.707Z,99665.02
2019-04-25T13:16:21.454Z,99662.50
2019-04-25T13:18:50.386Z,99657.16
2019-04-25T13:21:19.153Z,99662.42
2019-04-25T13:23:47.811Z,99664.75
2019-04-25T13:26:18.157Z,99667.91
2019-04-25T13:28:59.029Z,99655.70
2019-04-25T13:31:44.327Z,99662.09
2019-04-25T13:34:36.258Z,99654.83
2019-04-25T13:37:05.278Z,99641.19
2019-04-25T13:39:34.216Z,99639.28
2019-04-25T13:42:05.518Z,99631.26
2019-04-25T13:44:34.762Z,99627.02
2019-04-25T13:47:04.101Z,99617.97
2019-04-25T13:49:33.003Z,99620.02
2019-04-25T13:52:01.678Z,99607.01
2019-04-25T13:54:31.396Z,99598.78
2019-04-25T13:57:00.205Z,99592.91
2019-04-25T13:59:29.029Z,99594.72
2019-04-25T14:01:58.361Z,99592.13
2019-04-25T14:04:28.070Z,99586.59
2019-04-25T14:06:56.844Z,99582.05
2019-04-25T14:09:27.385Z,99574.06
2019-04-25T14:11:56.096Z,99580.58
2019-04-25T14:14:24.821Z,99570.92
2019-04-25T14:17:13.910Z,99561.61
2019-04-25T14:20:01.792Z,99569.94
2019-04-25T14:22:30.581Z,99558.52
2019-04-25T14:24:59.231Z,99559.23
2019-04-25T14:27:28.070Z,99544.16
2019-04-25T14:29:56.816Z,99545.84
2019-04-25T14:32:28.345Z,99542.86
2019-04-25T14:34:56.272Z,99542.94
2019-04-25T14:37:29.256Z,99534.26
2019-04-25T14:39:55.427Z,99532.70
2019-04-25T14:42:24.525Z,99534.44
2019-04-25T14:44:53.293Z,99539.73
2019-04-25T14:47:22.120Z,99533.41
2019-04-25T14:49:51.997Z,99527.91
2019-04-25T14:52:20.747Z,99530.11
2019-04-25T14:55:12.663Z,99525.03
2019-04-25T14:57:41.339Z,99526.30
2019-04-25T15:00:17.228Z,99526.10
2019-04-25T15:02:45.890Z,99522.44
2019-04-25T15:05:14.612Z,99513.36
2019-04-25T15:07:43.284Z,99513.55
2019-04-25T15:10:12.867Z,99501.20
2019-04-25T15:12:41.562Z,99501.31
2019-04-25T15:15:10.322Z,99511.97
2019-04-25T15:17:46.294Z,99502.30
2019-04-25T15:20:09.608Z,99492.13
2019-04-25T15:22:38.271Z,99493.48
2019-04-25T15:25:07.090Z,99479.78
2019-04-25T15:27:35.743Z,99487.94
2019-04-25T15:30:05.825Z,99492.36
2019-04-25T15:32:34.888Z,99502.11
2019-04-25T15:35:04.092Z,99502.33
2019-04-25T15:37:44.676Z,99502.64
2019-04-25T15:40:24.095Z,99497.81
2019-04-25T15:43:11.227Z,99490.80
2019-04-25T15:45:59.068Z,99496.81
2019-04-25T15:48:28.846Z,99493.82
2019-04-25T15:50:57.737Z,99491.01
2019-04-25T15:53:26.393Z,99485.59
2019-04-25T15:55:55.058Z,99477.70
2019-04-25T15:58:23.801Z,99480.63
2019-04-25T16:00:52.520Z,99478.72
2019-04-25T16:03:21.267Z,99472.81
2019-04-25T16:05:49.918Z,99474.26
2019-04-25T16:08:18.680Z,99459.02
2019-04-25T16:10:47.402Z,99459.87
2019-04-25T16:13:16.064Z,99465.20
2019-04-25T16:15:44.738Z,99464.84
2019-04-25T16:18:13.481Z,99463.83
2019-04-25T16:20:42.148Z,99459.37
2019-04-25T16:23:11.082Z,99462.50
2019-04-25T16:25:39.833Z,99456.94
2019-04-25T16:28:08.509Z,99455.08
2019-04-25T16:30:37.193Z,99462.62
2019-04-25T16:33:06.300Z,99469.98
2019-04-25T16:35:35.460Z,99461.37
2019-04-25T16:38:05.623Z,99457.22
2019-04-25T16:40:34.300Z,99450.07
2019-04-25T16:43:04.599Z,99455.27
2019-04-25T16:45:35.391Z,99456.45
2019-04-25T16:48:04.233Z,99462.34
2019-04-25T16:50:32.889Z,99457.13
2019-04-25T16:53:01.563Z,99456.48
2019-04-25T16:55:30.773Z,99451.31
2019-04-25T16:58:00.483Z,99455.15
2019-04-25T17:00:57.416Z,99451.98
2019-04-25T17:03:29.940Z,99447.65
2019-04-25T17:05:58.550Z,99454.91
2019-04-25T17:08:27.213Z,99446.65
2019-04-25T17:10:55.894Z,99434.09
2019-04-25T17:13:25.587Z,99437.77
2019-04-25T17:16:11.657Z,99427.15
2019-04-25T17:18:46.881Z,99425.83
2019-04-25T17:21:15.602Z,99417.57
2019-04-25T17:23:44.267Z,99416.95
2019-04-25T17:26:13.538Z,99418.17
2019-04-25T17:28:43.870Z,99419.89
2019-04-25T17:31:34.606Z,99420.45
2019-04-25T17:34:14.247Z,99419.87
2019-04-25T17:37:00.685Z,99423.36
2019-04-25T17:39:51.174Z,99420.29
2019-04-25T17:42:19.936Z,99415.73
2019-04-25T17:44:48.588Z,99411.70
2019-04-25T17:47:17.345Z,99405.38
2019-04-25T17:49:46.079Z,99412.86
2019-04-25T17:52:14.808Z,99411.84
2019-04-25T17:54:43.461Z,99409.38
2019-04-25T17:57:12.156Z,99405.10
2019-04-25T17:59:41.281Z,99397.55
2019-04-25T18:02:10.198Z,99402.14
2019-04-25T18:04:38.849Z,99403.97
2019-04-25T18:07:07.608Z,99400.78
2019-04-25T18:09:36.803Z,99399.55
2019-04-25T18:12:05.761Z,99404.70
2019-04-25T18:14:35.209Z,99400.70
2019-04-25T18:17:04.044Z,99395.44
2019-04-25T18:19:53.326Z,99393.58
2019-04-25T18:22:59.235Z,99392.11
2019-04-25T18:25:48.472Z,99399.09
2019-04-25T18:28:35.503Z,99395.42
2019-04-25T18:31:04.953Z,99400.45
2019-04-25T18:33:33.611Z,99400.42
2019-04-25T18:36:07.915Z,99397.26
2019-04-25T18:38:56.615Z,99408.11
2019-04-25T18:41:33.067Z,99405.19
2019-04-25T18:44:03.283Z,99408.41
2019-04-25T18:46:36.981Z,99407.27
2019-04-25T18:49:05.833Z,99412.91
2019-04-25T18:51:34.540Z,99419.02
2019-04-25T18:54:11.689Z,99422.18
2019-04-25T18:56:56.164Z,99422.30
2019-04-25T18:59:43.947Z,99421.87
2019-04-25T19:02:26.464Z,99423.59
2019-04-25T19:05:13.188Z,99424.67
2019-04-25T19:07:41.828Z,99428.22
2019-04-25T19:10:11.708Z,99433.80
2019-04-25T19:12:41.208Z,99426.05
2019-04-25T19:15:10.036Z,99431.59
2019-04-25T19:17:39.885Z,99428.52
2019-04-25T19:20:09.111Z,99433.12
2019-04-25T19:22:37.794Z,99432.95
2019-04-25T19:25:06.713Z,99435.56
2019-04-25T19:27:35.401Z,99434.38
2019-04-25T19:30:04.941Z,99436.06
2019-04-25T19:32:33.628Z,99427.78
2019-04-25T19:35:02.317Z,99426.66
2019-04-25T19:37:31.008Z,99429.93
2019-04-25T19:40:18.576Z,99430.37
2019-04-25T19:42:49.993Z,99424.34
2019-04-25T19:45:18.657Z,99424.84
2019-04-25T19:47:47.344Z,99423.27
2019-04-25T19:50:16.177Z,99426.92
2019-04-25T19:52:45.600Z,99434.23
2019-04-25T19:55:14.657Z,99431.34
2019-04-25T19:57:43.820Z,99431.11
2019-04-25T20:00:13.116Z,99431.13
2019-04-25T20:02:48.717Z,99435.44
2019-04-25T20:05:36.079Z,99433.12
2019-04-25T20:08:14.482Z,99434.53
2019-04-25T20:11:01.874Z,99431.06
2019-04-25T20:13:30.685Z,99440.70
2019-04-25T20:15:59.358Z,99436.97
2019-04-25T20:18:28.419Z,99444.45
2019-04-25T20:20:57.099Z,99444.41
2019-04-25T20:23:25.751Z,99440.66
2019-04-25T20:25:56.280Z,99436.58
2019-04-25T20:28:24.854Z,99435.84
2019-04-25T20:30:54.500Z,99427.17
2019-04-25T20:33:23.324Z,99430.10
2019-04-25T20:35:52.006Z,99416.48
2019-04-25T20:38:20.733Z,99422.59
2019-04-25T20:40:49.630Z,99425.30
2019-04-25T20:43:18.469Z,99425.41
2019-04-25T20:45:48.035Z,99422.47
2019-04-25T20:48:16.975Z,99429.14
2019-04-25T20:50:46.820Z,99422.47
2019-04-25T20:53:15.536Z,99419.25
2019-04-25T20:55:44.237Z,99427.88
2019-04-25T20:58:12.888Z,99417.47
2019-04-25T21:00:47.105Z,99421.48
2019-04-25T21:03:16.530Z,99413.50
2019-04-25T21:05:46.151Z,99413.81
2019-04-25T21:08:14.840Z,99445.56
2019-04-25T21:10:43.492Z,99509.73
2019-04-25T21:13:16.050Z,99504.11
2019-04-25T21:16:00.230Z,99477.59
2019-04-25T21:18:51.095Z,99500.20
2019-04-25T21:21:19.712Z,99503.50
2019-04-25T21:23:48.368Z,99508.73
2019-04-25T21:26:17.135Z,99514.80
2019-04-25T21:28:45.786Z,99534.16
2019-04-25T21:31:14.437Z,99536.19
2019-04-25T21:33:43.120Z,99542.98
2019-04-25T21:36:11.971Z,99569.27
2019-04-25T21:38:41.004Z,99565.77
2019-04-25T21:41:31.729Z,99576.71
2019-04-25T21:44:03.607Z,99570.65
2019-04-25T21:46:32.542Z,99584.19
2019-04-25T21:49:01.374Z,99575.09
2019-04-25T21:51:33.234Z,99585.64
2019-04-25T21:54:03.676Z,99583.02
2019-04-25T21:56:32.571Z,99597.25
2019-04-25T21:59:01.969Z,99601.33
2019-04-25T22:01:39.405Z,99611.56
2019-04-25T22:04:08.080Z,99616.98
2019-04-25T22:06:37.299Z,99608.68
2019-04-25T22:09:10.338Z,99624.25
2019-04-25T22:11:39.108Z,99623.20
2019-04-25T22:14:08.414Z,99623.23
2019-04-25T22:16:37.466Z,99625.10
2019-04-25T22:19:07.082Z,99636.63
2019-04-25T22:21:38.371Z,99638.24
2019-04-25T22:24:11.257Z,99646.56
2019-04-25T22:26:37.097Z,99640.64
2019-04-25T22:29:06.248Z,99656.20
2019-04-25T22:31:41.307Z,99657.80
2019-04-25T22:34:52.455Z,99657.80
2019-04-25T22:37:17.863Z,99665.55
2019-04-25T22:39:46.716Z,99667.95
2019-04-25T22:42:15.423Z,99672.23
2019-04-25T22:44:44.388Z,99672.78
2019-04-25T22:47:13.043Z,99665.03
2019-04-25T22:49:41.705Z,99674.14
2019-04-25T22:52:11.189Z,99675.48
2019-04-25T22:54:39.920Z,99674.13
2019-04-25T22:57:08.667Z,99670.65
2019-04-25T22:59:37.648Z,99673.05
2019-04-25T23:02:14.499Z,99673.58
2019-04-25T23:05:12.097Z,99663.41
2019-04-25T23:07:39.159Z,99663.41
2019-04-25T23:10:08.353Z,99665.02
2019-04-25T23:12:37.725Z,99661.28
2019-04-25T23:15:06.843Z,99667.42
2019-04-25T23:17:35.539Z,99668.79
2019-04-25T23:20:05.741Z,99671.19
2019-04-25T23:22:34.431Z,99665.83
2019-04-25T23:25:08.060Z,99671.17
2019-04-25T23:27:44.035Z,99676.54
2019-04-25T23:30:14.833Z,99683.75
2019-04-25T23:32:43.544Z,99676.75
2019-04-25T23:35:24.199Z,99665.81
2019-04-25T23:37:42.761Z,99664.16
2019-04-25T23:40:11.675Z,99656.41
2019-04-25T23:42:40.393Z,99644.34
2019-04-25T23:45:10.324Z,99643.17
2019-04-25T23:47:39.012Z,99634.02
2019-04-25T23:50:09.019Z,99634.80
2019-04-25T23:52:37.708Z,99637.66
2019-04-25T23:55:08.110Z,99649.59
2019-04-25T23:57:37.243Z,99667.23
